Time;durP1;ratioP1;P1;durP2;ratioP2;P2;SDS_P1;SDS_P2;PMS_P1;PMS_P2;Temp;Humidity;BMP_temperature;BMP_pressure;BME280_temperature;BME280_humidity;BME280_pressure;Samples;Min_cycle;Max_cycle;Signal;HPM_P1;HPM_P2
2021/10/01 00:01:10;;;;;;;4.43;0.85;;;;;;;10.19;46.65;101669.47;4986900;28;20034;-70
2021/10/01 00:03:35;;;;;;;1.30;0.25;;;;;;;10.00;47.14;101670.81;5014146;28;20104;-70
2021/10/01 00:06:01;;;;;;;4.85;0.25;;;;;;;10.36;46.30;101658.56;4999090;28;20027;-70
2021/10/01 00:08:26;;;;;;;2.95;0.40;;;;;;;10.43;46.42;101661.88;5013707;28;20720;-71
2021/10/01 00:10:52;;;;;;;4.82;0.30;;;;;;;10.10;47.37;101654.03;5013653;28;20037;-70
2021/10/01 00:13:17;;;;;;;3.78;0.60;;;;;;;10.47;46.83;101649.59;4993569;28;20030;-71
2021/10/01 00:15:44;;;;;;;2.10;0.55;;;;;;;10.25;47.43;101650.16;4993602;28;20026;-70
2021/10/01 00:18:10;;;;;;;4.55;0.40;;;;;;;10.59;47.04;101634.44;5010882;28;20041;-70
2021/10/01 00:20:35;;;;;;;5.43;0.65;;;;;;;10.17;48.15;101641.69;5017347;28;20041;-70
2021/10/01 00:23:01;;;;;;;4.97;0.20;;;;;;;10.87;46.64;101644.13;4984964;28;20030;-71
2021/10/01 00:25:26;;;;;;;1.45;0.30;;;;;;;10.74;46.95;101634.88;4998347;28;20060;-69
2021/10/01 00:27:52;;;;;;;1.70;1.00;;;;;;;10.95;46.55;101636.94;5011158;28;20034;-70
2021/10/01 00:30:17;;;;;;;3.88;0.28;;;;;;;10.55;47.22;101631.94;5002014;28;20133;-71
2021/10/01 00:32:43;;;;;;;4.13;0.40;;;;;;;10.33;47.48;101640.38;4998450;28;20037;-70
2021/10/01 00:35:08;;;;;;;3.83;0.43;;;;;;;10.95;46.19;101630.81;5002785;28;20030;-70
2021/10/01 00:37:34;;;;;;;2.78;0.20;;;;;;;11.00;45.96;101624.56;5011845;28;20129;-70
2021/10/01 00:39:59;;;;;;;2.95;0.43;;;;;;;10.63;46.42;101620.34;5001504;28;20042;-70
2021/10/01 00:42:24;;;;;;;3.25;0.40;;;;;;;11.02;45.58;101620.13;4999945;28;20034;-70
2021/10/01 00:44:51;;;;;;;6.25;0.68;;;;;;;10.96;45.43;101622.09;5011625;28;20034;-70
2021/10/01 00:47:17;;;;;;;3.15;0.47;;;;;;;10.95;45.17;101623.84;4994871;28;20038;-70
2021/10/01 00:49:42;;;;;;;2.63;0.30;;;;;;;10.36;46.01;101621.13;5001155;28;20717;-69
2021/10/01 00:52:08;;;;;;;2.80;0.20;;;;;;;11.18;44.12;101619.69;5001647;28;20035;-70
2021/10/01 00:54:37;;;;;;;2.55;0.30;;;;;;;11.15;44.16;101602.31;5000510;28;20042;-70
2021/10/01 00:57:03;;;;;;;1.15;0.22;;;;;;;11.30;43.77;101606.19;5002003;28;20026;-70
2021/10/01 00:59:28;;;;;;;3.40;0.30;;;;;;;11.04;43.67;101604.41;5003875;28;20567;-70
2021/10/01 01:01:54;;;;;;;2.13;0.20;;;;;;;10.95;44.26;101604.66;5004163;28;20034;-70
2021/10/01 01:04:21;;;;;;;4.47;0.65;;;;;;;11.21;43.88;101602.09;5012058;28;20125;-70
2021/10/01 01:06:55;;;;;;;9.27;0.32;;;;;;;11.38;43.42;101606.81;5002574;28;20042;-70
2021/10/01 01:09:45;;;;;;;3.55;0.20;;;;;;;10.63;44.74;101602.06;4992958;28;20125;-70
2021/10/01 01:12:28;;;;;;;4.00;1.23;;;;;;;11.12;43.77;101594.53;4996449;28;20033;-70
2021/10/01 01:15:17;;;;;;;2.33;0.40;;;;;;;11.46;43.36;101596.09;5013873;28;20038;-70
2021/10/01 01:17:48;;;;;;;3.72;0.35;;;;;;;10.93;44.08;101594.25;4991590;28;20033;-70
2021/10/01 01:20:31;;;;;;;4.78;0.43;;;;;;;10.84;44.32;101586.69;5007363;28;20057;-70
2021/10/01 01:23:31;;;;;;;8.05;0.68;;;;;;;11.15;43.17;101584.00;5014410;28;20030;-69
2021/10/01 01:26:06;;;;;;;3.28;0.38;;;;;;;10.88;43.92;101580.44;4990290;28;20034;-70
2021/10/01 01:29:01;;;;;;;3.17;0.25;;;;;;;11.02;44.03;101590.53;5011616;28;20037;-70
2021/10/01 01:31:30;;;;;;;0.90;0.25;;;;;;;11.29;43.61;101582.72;4987091;28;20030;-70
2021/10/01 01:33:59;;;;;;;4.40;0.20;;;;;;;11.04;44.21;101586.09;4995814;28;20069;-70
2021/10/01 01:36:26;;;;;;;2.78;0.32;;;;;;;11.22;44.04;101585.53;5003927;28;20029;-70
2021/10/01 01:38:54;;;;;;;1.38;0.30;;;;;;;10.97;44.11;101584.53;4995834;28;20034;-70
2021/10/01 01:41:22;;;;;;;2.25;0.50;;;;;;;11.14;43.74;101584.03;4997171;28;20026;-70
2021/10/01 01:43:49;;;;;;;6.63;0.40;;;;;;;11.16;43.91;101579.63;5006931;28;20042;-69
2021/10/01 01:46:16;;;;;;;1.33;0.30;;;;;;;10.99;43.90;101573.13;5014033;28;20032;-69
2021/10/01 01:48:44;;;;;;;3.75;0.30;;;;;;;11.18;43.53;101572.59;4998652;28;20044;-70
2021/10/01 01:51:11;;;;;;;1.85;0.43;;;;;;;10.96;43.98;101572.38;5003491;28;20044;-69
2021/10/01 01:53:38;;;;;;;6.15;0.32;;;;;;;11.05;43.94;101565.09;4997759;28;20061;-71
2021/10/01 01:56:06;;;;;;;6.40;0.68;;;;;;;11.16;43.88;101577.00;5005984;28;20038;-70
2021/10/01 01:58:34;;;;;;;4.28;0.30;;;;;;;11.02;44.37;101580.91;5003163;28;20128;-70
2021/10/01 02:01:30;;;;;;;3.05;0.30;;;;;;;10.90;44.67;101577.78;4995373;28;20034;-69
2021/10/01 02:04:14;;;;;;;1.30;0.30;;;;;;;10.66;44.71;101571.50;4997638;28;20037;-70
2021/10/01 02:06:41;;;;;;;2.67;0.30;;;;;;;10.74;44.81;101565.16;4989595;28;20380;-70
2021/10/01 02:09:10;;;;;;;2.80;0.52;;;;;;;10.71;44.82;101559.16;4994921;28;20036;-69
2021/10/01 02:11:40;;;;;;;2.65;0.22;;;;;;;10.95;44.74;101554.97;5003593;28;20038;-69
2021/10/01 02:14:07;;;;;;;6.38;0.43;;;;;;;10.91;44.74;101551.59;5004873;28;20030;-70
2021/10/01 02:16:33;;;;;;;8.23;0.75;;;;;;;11.00;44.29;101543.47;4983696;28;20069;-70
2021/10/01 02:19:01;;;;;;;4.05;0.40;;;;;;;11.09;44.48;101544.09;4987888;28;20034;-70
2021/10/01 02:21:29;;;;;;;0.70;0.20;;;;;;;10.89;44.87;101536.88;4997523;28;20045;-70
2021/10/01 02:23:56;;;;;;;3.10;0.77;;;;;;;10.32;46.54;101549.78;4999222;28;20030;-70
2021/10/01 02:26:37;;;;;;;3.78;0.47;;;;;;;10.72;45.66;101542.56;5001365;28;20512;-70
2021/10/01 02:29:11;;;;;;;4.07;0.45;;;;;;;10.73;45.83;101541.69;5001817;28;20498;-69
2021/10/01 02:31:50;;;;;;;6.78;0.38;;;;;;;10.84;45.66;101542.25;4983904;28;20030;-70
2021/10/01 02:34:22;;;;;;;4.28;0.60;;;;;;;10.76;45.50;101546.81;4999429;28;20044;-70
2021/10/01 02:36:47;;;;;;;3.85;0.35;;;;;;;10.96;45.15;101543.63;5004355;28;20710;-70
2021/10/01 02:39:13;;;;;;;1.50;0.25;;;;;;;10.98;45.13;101547.91;4996088;28;20106;-71
2021/10/01 02:41:39;;;;;;;5.80;0.45;;;;;;;10.49;46.41;101544.09;4998156;28;20058;-71
2021/10/01 02:44:04;;;;;;;4.43;0.30;;;;;;;10.59;46.04;101547.28;4998987;28;20121;-71
2021/10/01 02:46:33;;;;;;;3.28;0.47;;;;;;;11.04;44.97;101537.25;4995432;28;20119;-70
2021/10/01 02:49:00;;;;;;;3.17;0.57;;;;;;;11.02;44.89;101544.28;5015062;28;20066;-70
2021/10/01 02:51:29;;;;;;;1.58;0.20;;;;;;;10.84;45.43;101534.41;4989047;28;20395;-70
2021/10/01 02:54:00;;;;;;;7.72;0.65;;;;;;;11.10;44.65;101530.09;4998987;28;20038;-70
2021/10/01 02:56:31;;;;;;;3.03;0.82;;;;;;;11.00;44.51;101535.63;5007036;28;20041;-70
2021/10/01 02:59:00;;;;;;;5.28;0.60;;;;;;;10.81;45.06;101529.22;4982865;28;20034;-70
2021/10/01 03:01:28;;;;;;;5.50;0.50;;;;;;;10.92;44.89;101521.91;5001913;28;20034;-70
2021/10/01 03:03:58;;;;;;;2.15;0.20;;;;;;;10.80;44.86;101519.66;4992108;28;20042;-70
2021/10/01 03:06:28;;;;;;;2.85;0.28;;;;;;;10.65;45.27;101520.97;4995938;28;20084;-70
2021/10/01 03:08:54;;;;;;;2.97;0.40;;;;;;;10.34;45.80;101518.41;4989029;28;20033;-70
2021/10/01 03:11:24;;;;;;;4.97;0.63;;;;;;;10.32;45.88;101509.75;4998640;28;20030;-70
2021/10/01 03:13:51;;;;;;;5.55;0.30;;;;;;;9.83;47.28;101506.75;5000047;28;20041;-70
2021/10/01 03:16:19;;;;;;;4.95;0.38;;;;;;;10.29;46.32;101502.00;5011676;28;20030;-70
2021/10/01 03:18:45;;;;;;;1.05;0.68;;;;;;;10.65;45.62;101515.75;5011367;28;20065;-70
2021/10/01 03:21:12;;;;;;;3.03;0.30;;;;;;;10.43;45.68;101502.47;4993902;28;20030;-70
2021/10/01 03:23:42;;;;;;;3.15;0.45;;;;;;;10.76;45.26;101499.75;5000495;28;20065;-69
2021/10/01 03:26:08;;;;;;;10.52;1.25;;;;;;;10.30;46.05;101498.50;4990592;28;20035;-69
2021/10/01 03:28:36;;;;;;;3.40;0.25;;;;;;;10.55;45.37;101502.09;5009105;28;20033;-71
2021/10/01 03:31:02;;;;;;;2.65;0.35;;;;;;;10.44;45.67;101498.97;4998127;28;20042;-69
2021/10/01 03:33:34;;;;;;;6.22;0.47;;;;;;;10.54;45.62;101495.16;4981341;28;20032;-69
2021/10/01 03:36:01;;;;;;;3.60;0.35;;;;;;;10.61;45.51;101493.22;4991881;28;20043;-70
2021/10/01 03:38:27;;;;;;;3.15;0.93;;;;;;;10.35;46.00;101488.78;4995123;28;20033;-70
2021/10/01 03:40:59;;;;;;;2.78;0.68;;;;;;;10.49;45.44;101493.59;5011690;28;20045;-70
2021/10/01 03:43:26;;;;;;;2.42;0.40;;;;;;;10.31;45.84;101481.94;5011735;28;20061;-70
2021/10/01 03:45:57;;;;;;;5.32;0.55;;;;;;;10.72;45.23;101496.34;4992886;28;20038;-69
2021/10/01 03:48:25;;;;;;;3.83;0.40;;;;;;;10.59;45.35;101488.06;5000844;28;20141;-69
2021/10/01 03:50:58;;;;;;;6.35;0.70;;;;;;;10.53;45.55;101483.00;5022946;28;20045;-69
2021/10/01 03:53:24;;;;;;;4.18;0.50;;;;;;;10.80;44.97;101480.44;5018704;28;20037;-69
2021/10/01 03:55:49;;;;;;;1.67;0.43;;;;;;;10.59;45.02;101474.97;5017574;28;20038;-68
2021/10/01 03:58:15;;;;;;;4.10;0.68;;;;;;;10.41;45.74;101473.78;5002236;28;20045;-69
2021/10/01 04:00:45;;;;;;;1.33;0.30;;;;;;;10.41;45.75;101468.56;5003244;28;20041;-69
2021/10/01 04:03:14;;;;;;;2.08;0.30;;;;;;;10.68;44.90;101470.34;4993107;28;20424;-69
2021/10/01 04:05:46;;;;;;;6.50;1.13;;;;;;;10.29;45.84;101466.28;5010993;28;20037;-70
2021/10/01 04:08:13;;;;;;;1.35;0.30;;;;;;;10.48;45.30;101473.56;4983680;28;20026;-69
2021/10/01 04:10:41;;;;;;;1.58;0.45;;;;;;;10.43;45.59;101464.09;4994399;28;20030;-69
2021/10/01 04:13:09;;;;;;;2.58;0.50;;;;;;;10.42;45.69;101456.34;5011735;28;20058;-69
2021/10/01 04:15:41;;;;;;;1.27;0.40;;;;;;;10.60;44.98;101460.16;5008933;28;20065;-70
2021/10/01 04:18:07;;;;;;;2.35;0.30;;;;;;;10.87;44.61;101455.84;4994547;28;20046;-70
2021/10/01 04:20:36;;;;;;;1.05;0.40;;;;;;;10.04;46.19;101463.53;5000108;28;20073;-70
2021/10/01 04:23:02;;;;;;;6.20;0.35;;;;;;;10.26;45.87;101452.44;4992176;28;20057;-70
2021/10/01 04:25:48;;;;;;;1.63;0.43;;;;;;;10.46;45.51;101444.88;4996857;28;20500;-70
2021/10/01 04:28:16;;;;;;;2.63;0.30;;;;;;;10.45;45.06;101440.56;4995198;28;20065;-70
2021/10/01 04:30:48;;;;;;;9.23;0.90;;;;;;;10.10;46.23;101437.25;4998617;28;20061;-69
2021/10/01 04:33:24;;;;;;;8.52;0.55;;;;;;;10.34;45.97;101445.25;4997746;28;20590;-70
2021/10/01 04:35:52;;;;;;;4.78;0.63;;;;;;;10.36;45.92;101438.22;5000087;28;20058;-69
2021/10/01 04:38:20;;;;;;;2.60;0.38;;;;;;;10.69;44.92;101446.78;4999432;28;20128;-70
2021/10/01 04:40:48;;;;;;;4.85;0.30;;;;;;;10.42;45.50;101443.25;5015570;28;20030;-69
2021/10/01 04:43:14;;;;;;;3.42;0.30;;;;;;;10.64;45.17;101449.53;4981488;28;20046;-69
2021/10/01 04:45:58;;;;;;;10.15;0.50;;;;;;;10.56;45.32;101455.91;4995326;28;20129;-69
2021/10/01 04:48:25;;;;;;;0.65;0.30;;;;;;;10.82;44.60;101452.53;5007985;28;20041;-69
2021/10/01 04:50:51;;;;;;;1.80;0.20;;;;;;;10.57;44.99;101441.91;4979963;28;20034;-69
2021/10/01 04:53:17;;;;;;;1.92;0.20;;;;;;;10.97;44.47;101436.34;4999398;28;20036;-69
2021/10/01 04:55:46;;;;;;;6.93;0.20;;;;;;;10.55;45.04;101438.53;5010267;28;20042;-69
2021/10/01 04:58:12;;;;;;;0.80;0.20;;;;;;;10.62;45.16;101434.81;5010507;28;20117;-70
2021/10/01 05:01:04;;;;;;;0.98;0.25;;;;;;;10.39;45.26;101430.28;5005090;28;20052;-69
2021/10/01 05:03:36;;;;;;;4.28;0.35;;;;;;;10.57;45.19;101428.84;4994131;28;20144;-69
2021/10/01 05:06:20;;;;;;;4.85;0.30;;;;;;;10.62;44.95;101437.44;4994747;28;20165;-69
2021/10/01 05:09:08;;;;;;;1.98;0.30;;;;;;;10.44;45.11;101423.19;4995885;28;20058;-69
2021/10/01 05:12:10;;;;;;;0.57;0.20;;;;;;;10.58;45.30;101423.59;5001929;28;20042;-69
2021/10/01 05:14:54;;;;;;;5.47;0.60;;;;;;;10.48;45.73;101426.53;5013308;28;20116;-69
2021/10/01 05:17:39;;;;;;;6.85;0.30;;;;;;;10.48;45.64;101426.53;4996171;28;20068;-69
2021/10/01 05:20:43;;;;;;;2.53;0.68;;;;;;;10.50;45.17;101425.56;4987809;28;20043;-69
2021/10/01 05:23:17;;;;;;;2.97;0.43;;;;;;;10.31;45.82;101425.28;4972498;28;20037;-69
2021/10/01 05:25:43;;;;;;;4.07;0.43;;;;;;;10.36;45.71;101422.53;4981373;28;20049;-69
2021/10/01 05:28:08;;;;;;;1.75;0.38;;;;;;;10.44;45.52;101417.94;4996641;28;20034;-70
2021/10/01 05:30:34;;;;;;;2.63;0.30;;;;;;;10.23;45.72;101432.50;5012772;28;20041;-69
2021/10/01 05:33:05;;;;;;;12.88;0.47;;;;;;;10.34;45.87;101429.56;5002116;28;20125;-70
2021/10/01 05:35:33;;;;;;;0.73;0.10;;;;;;;10.69;44.98;101443.31;5007540;28;20034;-69
2021/10/01 05:37:58;;;;;;;2.05;0.65;;;;;;;10.49;45.54;101436.09;5003766;28;20289;-69
2021/10/01 05:40:25;;;;;;;2.85;0.55;;;;;;;10.22;45.97;101447.31;5016843;28;20050;-70
2021/10/01 05:42:50;;;;;;;0.75;0.20;;;;;;;10.21;46.09;101445.63;5003089;28;20177;-70
2021/10/01 05:45:16;;;;;;;5.18;0.57;;;;;;;10.55;45.75;101456.81;5002394;28;20029;-69
2021/10/01 05:48:01;;;;;;;6.82;0.30;;;;;;;10.52;45.25;101455.13;4997029;28;20077;-68
2021/10/01 05:50:52;;;;;;;3.70;0.65;;;;;;;10.38;46.05;101446.88;4996962;28;20054;-69
2021/10/01 05:56:45;;;;;;;1.55;0.52;;;;;;;10.86;44.55;101448.03;4996488;28;20038;-70
2021/10/01 05:59:26;;;;;;;5.22;0.88;;;;;;;10.74;44.89;101446.63;5004536;28;20069;-70
2021/10/01 06:01:52;;;;;;;3.20;0.30;;;;;;;10.78;44.86;101448.25;4993523;28;20049;-68
2021/10/01 06:04:17;;;;;;;2.55;0.50;;;;;;;10.68;45.17;101444.22;5011983;28;20062;-70
2021/10/01 06:06:43;;;;;;;2.05;0.55;;;;;;;10.50;45.47;101456.94;4998223;28;20039;-69
2021/10/01 06:09:13;;;;;;;1.55;0.22;;;;;;;10.45;45.32;101453.63;4996979;28;20042;-69
2021/10/01 06:11:39;;;;;;;3.67;0.80;;;;;;;10.64;45.13;101453.91;5001239;28;20040;-69
2021/10/01 06:14:06;;;;;;;1.30;0.40;;;;;;;10.79;44.97;101458.69;5000393;28;20038;-69
2021/10/01 06:16:32;;;;;;;8.18;0.88;;;;;;;10.98;44.66;101448.50;4998744;28;20030;-70
2021/10/01 06:18:58;;;;;;;2.38;0.65;;;;;;;10.54;45.29;101458.56;5012796;28;20484;-69
2021/10/01 06:21:23;;;;;;;3.92;0.30;;;;;;;11.03;44.33;101462.28;4984069;28;20044;-69
2021/10/01 06:23:49;;;;;;;4.25;0.52;;;;;;;10.86;44.59;101458.50;5014227;28;20045;-69
2021/10/01 06:26:14;;;;;;;3.70;0.30;;;;;;;10.76;44.64;101460.53;4999454;28;20121;-68
2021/10/01 06:28:40;;;;;;;5.13;0.85;;;;;;;10.66;44.67;101470.41;4994272;28;20040;-70
2021/10/01 06:31:05;;;;;;;2.08;0.40;;;;;;;10.79;44.73;101460.41;4996109;28;20515;-69
2021/10/01 06:33:31;;;;;;;3.00;0.57;;;;;;;10.60;45.05;101453.16;4982774;28;20042;-69
2021/10/01 06:35:57;;;;;;;3.03;0.30;;;;;;;10.44;45.61;101451.91;4995845;28;20046;-69
2021/10/01 06:38:23;;;;;;;4.20;0.68;;;;;;;10.92;44.52;101445.22;5009986;28;20027;-68
2021/10/01 06:40:49;;;;;;;6.53;0.40;;;;;;;11.43;43.36;101444.38;4997595;28;20116;-69
2021/10/01 06:43:17;;;;;;;3.15;0.35;;;;;;;11.74;42.95;101443.31;4995690;28;20030;-70
2021/10/01 06:45:44;;;;;;;10.93;2.67;;;;;;;11.69;42.69;101440.88;4996493;28;20033;-69
2021/10/01 06:51:16;;;;;;;5.47;0.47;;;;;;;13.15;39.50;101431.78;4993558;28;20379;-68
2021/10/01 07:39:02;;;;;;;2.92;0.30;;;;;;;16.56;32.26;101417.75;5004055;28;20046;-67
2021/10/01 07:45:59;;;;;;;4.40;0.40;;;;;;;15.44;34.45;101410.59;5004087;28;20562;-67
2021/10/01 08:21:04;;;;;;;2.03;0.20;;;;;;;19.00;28.84;101402.69;5002454;28;20038;-67
2021/10/01 08:23:30;;;;;;;2.65;0.30;;;;;;;18.15;29.19;101394.09;4994302;28;20030;-67
2021/10/01 08:25:56;;;;;;;2.22;0.30;;;;;;;17.44;30.52;101395.81;5004408;28;20034;-67
2021/10/01 08:28:22;;;;;;;4.93;0.30;;;;;;;18.02;30.10;101396.69;5003548;28;21100;-66
2021/10/01 08:31:07;;;;;;;1.55;0.35;;;;;;;17.36;31.15;101399.91;4994261;28;20030;-65
2021/10/01 08:33:33;;;;;;;2.60;0.40;;;;;;;16.69;31.96;101395.00;5002766;28;20049;-67
2021/10/01 08:35:59;;;;;;;5.43;0.55;;;;;;;17.40;31.19;101390.81;5002361;28;20022;-66
2021/10/01 08:38:25;;;;;;;2.95;0.30;;;;;;;16.62;32.52;101383.06;5002421;28;20507;-66
2021/10/01 08:40:50;;;;;;;2.83;0.20;;;;;;;16.78;32.50;101385.72;5002749;28;20337;-66
2021/10/01 08:43:16;;;;;;;5.93;0.30;;;;;;;17.10;31.83;101373.25;5003104;28;20057;-67
2021/10/01 08:45:42;;;;;;;2.70;0.52;;;;;;;17.19;31.57;101380.63;5004141;28;20030;-65
2021/10/01 08:48:08;;;;;;;2.70;0.28;;;;;;;15.97;33.03;101397.22;5006020;28;20487;-66
2021/10/01 08:50:33;;;;;;;3.75;0.20;;;;;;;;;;5002987;28;20068;-66
2021/10/01 08:52:59;;;;;;;2.17;0.38;;;;;;;14.96;35.37;101405.13;5005537;28;20045;-66
2021/10/01 08:55:27;;;;;;;6.60;0.40;;;;;;;14.86;35.51;101406.53;5006749;28;20046;-66
2021/10/01 08:57:53;;;;;;;4.53;0.73;;;;;;;15.54;35.30;101398.66;5000899;28;20038;-66
2021/10/01 09:00:20;;;;;;;2.08;0.20;;;;;;;15.60;34.65;101393.09;5004760;28;20124;-64
2021/10/01 09:02:46;;;;;;;2.33;0.20;;;;;;;15.61;34.10;101386.88;5006490;28;20050;-66
2021/10/01 09:05:13;;;;;;;2.78;0.20;;;;;;;15.47;34.33;101378.84;5022411;28;20076;-65
2021/10/01 09:07:39;;;;;;;5.47;0.30;;;;;;;15.95;33.75;101378.00;5006436;28;20050;-65
2021/10/01 09:10:10;;;;;;;4.03;0.22;;;;;;;15.46;33.89;101379.78;5006513;28;20076;-67
2021/10/01 09:12:37;;;;;;;1.75;0.20;;;;;;;16.13;33.72;101377.94;5006793;28;20038;-66
2021/10/01 09:15:04;;;;;;;8.77;0.50;;;;;;;16.84;33.02;101382.72;5005899;28;20018;-65
2021/10/01 09:17:33;;;;;;;2.15;0.20;;;;;;;15.88;33.38;101365.22;5021036;28;20818;-65
2021/10/01 09:20:00;;;;;;;0.77;0.22;;;;;;;16.52;32.92;101366.94;5001917;28;20034;-67
2021/10/01 09:22:27;;;;;;;1.20;0.20;;;;;;;17.21;31.90;101364.69;5006136;28;20042;-65
2021/10/01 09:25:06;;;;;;;2.65;0.20;;;;;;;16.72;32.69;101355.22;5006191;28;20116;-66
2021/10/01 09:27:38;;;;;;;3.17;0.10;;;;;;;17.41;31.90;101351.09;5006123;28;20073;-66
2021/10/01 09:30:08;;;;;;;5.97;0.30;;;;;;;17.83;31.65;101351.22;5005263;28;20108;-67
2021/10/01 09:32:34;;;;;;;2.22;0.35;;;;;;;17.74;31.00;101343.84;5005341;28;20029;-66
2021/10/01 09:35:09;;;;;;;2.70;0.40;;;;;;;17.56;31.19;101340.56;5004922;28;20441;-65
2021/10/01 09:37:35;;;;;;;4.18;0.50;;;;;;;17.44;31.84;101342.13;5020464;28;20029;-65
2021/10/01 09:40:02;;;;;;;1.25;0.38;;;;;;;16.57;33.84;101337.63;5005979;28;20087;-66
2021/10/01 09:42:33;;;;;;;2.25;0.30;;;;;;;16.33;33.14;101340.75;5021216;28;20530;-65
2021/10/01 09:45:07;;;;;;;5.60;0.30;;;;;;;16.64;33.13;101333.69;5005281;28;20030;-66
2021/10/01 09:47:44;;;;;;;1.58;0.40;;;;;;;15.44;34.83;101329.81;5005281;28;20092;-66
2021/10/01 09:50:27;;;;;;;5.93;0.60;;;;;;;15.37;35.18;101329.31;5006007;28;20033;-65
2021/10/01 09:52:58;;;;;;;2.50;0.20;;;;;;;16.50;34.06;101320.47;5007945;28;20049;-65
2021/10/01 09:55:39;;;;;;;1.05;0.30;;;;;;;16.02;33.89;101327.59;5004585;28;20023;-66
2021/10/01 09:58:08;;;;;;;3.55;0.22;;;;;;;16.40;33.55;101331.56;5003348;28;20068;-66
2021/10/01 10:00:42;;;;;;;2.97;0.57;;;;;;;16.99;32.94;101329.00;5006429;28;20042;-65
2021/10/01 10:03:28;;;;;;;2.47;0.30;;;;;;;17.14;32.26;101329.88;5005361;28;20030;-66
2021/10/01 10:05:54;;;;;;;3.25;0.35;;;;;;;16.94;33.11;101317.03;5003787;28;20420;-66
2021/10/01 10:08:23;;;;;;;3.92;0.30;;;;;;;16.63;33.48;101318.81;5005454;28;20076;-66
2021/10/01 10:10:49;;;;;;;3.35;0.25;;;;;;;16.85;33.66;101318.44;5006459;28;20534;-67
2021/10/01 10:13:14;;;;;;;1.65;0.45;;;;;;;15.80;35.16;101310.31;5001467;28;20030;-65
2021/10/01 10:15:40;;;;;;;1.73;0.45;;;;;;;16.96;33.70;101312.50;5004705;28;20041;-67
2021/10/01 10:18:18;;;;;;;3.53;0.70;;;;;;;17.45;32.87;101312.16;5001715;28;20025;-67
2021/10/01 10:20:43;;;;;;;7.97;0.47;;;;;;;17.21;33.15;101323.28;5019147;28;20061;-65
2021/10/01 10:23:09;;;;;;;4.03;1.38;;;;;;;17.03;32.81;101325.25;5018622;28;20525;-67
2021/10/01 10:25:35;;;;;;;4.95;0.40;;;;;;;16.81;33.36;101323.03;5005979;28;20707;-67
2021/10/01 10:28:00;;;;;;;2.35;0.25;;;;;;;15.50;35.03;101329.47;5000089;28;20048;-66
2021/10/01 10:30:26;;;;;;;0.82;0.28;;;;;;;17.56;32.43;101320.28;5004062;28;20117;-67
2021/10/01 10:32:51;;;;;;;1.63;0.40;;;;;;;17.68;32.66;101316.00;5002002;28;20069;-66
2021/10/01 10:35:19;;;;;;;1.30;0.40;;;;;;;17.35;32.91;101308.38;5001976;28;20038;-69
2021/10/01 10:37:48;;;;;;;5.38;0.20;;;;;;;17.24;32.53;101311.66;5001165;28;20037;-66
2021/10/01 10:40:15;;;;;;;3.53;0.43;;;;;;;16.19;34.68;101307.25;5000872;28;20398;-66
2021/10/01 10:43:00;;;;;;;3.53;0.68;;;;;;;16.60;34.21;101311.09;4999160;28;20030;-66
2021/10/01 10:45:27;;;;;;;5.55;0.63;;;;;;;16.32;35.08;101317.94;5001730;28;20030;-65
2021/10/01 10:48:04;;;;;;;4.70;0.25;;;;;;;16.29;34.58;101317.28;4996483;28;20546;-67
2021/10/01 10:50:37;;;;;;;8.55;0.43;;;;;;;16.34;34.98;101316.06;5002472;28;20045;-66
2021/10/01 10:53:10;;;;;;;2.00;0.32;;;;;;;16.84;34.06;101311.44;5013989;28;20042;-65
2021/10/01 10:55:43;;;;;;;4.20;0.55;;;;;;;16.47;33.96;101310.94;4998682;28;20045;-66
2021/10/01 10:58:24;;;;;;;1.27;0.20;;;;;;;16.73;34.03;101305.91;5015402;28;20569;-66
2021/10/01 11:00:58;;;;;;;6.18;0.35;;;;;;;16.52;33.68;101305.41;5001833;28;20038;-67
2021/10/01 11:03:29;;;;;;;3.20;0.30;;;;;;;16.19;35.27;101306.41;5008391;28;20029;-65
2021/10/01 11:06:07;;;;;;;3.27;0.43;;;;;;;16.65;34.16;101293.19;4993652;28;20032;-66
2021/10/01 11:08:34;;;;;;;4.45;0.40;;;;;;;16.68;34.95;101294.78;5018481;28;20296;-65
2021/10/01 11:11:00;;;;;;;4.03;0.65;;;;;;;17.30;34.12;101300.72;5010761;28;20112;-65
2021/10/01 11:13:26;;;;;;;5.47;0.30;;;;;;;17.28;33.16;101296.47;5012485;28;20029;-66
2021/10/01 11:16:07;;;;;;;2.72;0.40;;;;;;;16.98;34.18;101293.00;4997294;28;20086;-65
2021/10/01 11:18:43;;;;;;;3.00;0.20;;;;;;;16.50;35.09;101283.53;5012930;28;20099;-65
2021/10/01 11:21:27;;;;;;;4.10;0.52;;;;;;;16.42;35.43;101300.66;5008610;28;20042;-66
2021/10/01 11:23:59;;;;;;;3.20;0.28;;;;;;;16.52;36.04;101297.47;5011339;28;20046;-66
2021/10/01 11:26:25;;;;;;;3.40;0.52;;;;;;;16.55;36.05;101302.56;5012169;28;20037;-66
2021/10/01 11:28:51;;;;;;;3.33;0.65;;;;;;;16.54;35.19;101290.34;5010880;28;20397;-66
2021/10/01 11:31:17;;;;;;;3.78;0.50;;;;;;;16.85;34.39;101292.03;5012558;28;20021;-67
2021/10/01 11:33:52;;;;;;;4.57;0.40;;;;;;;16.97;34.38;101298.34;5010071;28;20106;-66
2021/10/01 11:36:25;;;;;;;3.42;0.50;;;;;;;17.10;35.03;101286.09;5003395;28;20030;-65
2021/10/01 11:39:02;;;;;;;1.80;0.38;;;;;;;16.61;34.97;101281.09;5001315;28;20771;-66
2021/10/01 11:41:28;;;;;;;1.77;0.50;;;;;;;16.52;35.11;101289.56;5003167;28;20042;-67
2021/10/01 11:43:56;;;;;;;2.38;0.30;;;;;;;16.21;36.16;101278.16;5000914;28;20045;-66
2021/10/01 11:46:34;;;;;;;7.15;0.80;;;;;;;16.22;35.79;101279.88;5000366;28;21133;-66
2021/10/01 11:49:03;;;;;;;0.70;0.30;;;;;;;16.17;35.38;101276.63;5000331;28;20139;-65
2021/10/01 11:51:31;;;;;;;1.00;0.30;;;;;;;16.28;35.74;101271.56;4999049;28;20029;-66
2021/10/01 11:54:11;;;;;;;1.35;0.22;;;;;;;16.74;34.79;101265.41;4998881;28;20438;-66
2021/10/01 11:56:37;;;;;;;9.25;0.80;;;;;;;16.56;35.16;101264.72;5002023;28;20034;-67
2021/10/01 11:59:02;;;;;;;2.80;0.20;;;;;;;16.33;35.84;101269.53;4994134;28;20042;-65
2021/10/01 12:01:28;;;;;;;1.95;0.20;;;;;;;16.85;35.01;101262.16;5001296;28;20044;-65
2021/10/01 12:03:56;;;;;;;1.27;0.20;;;;;;;16.64;35.19;101254.53;5001574;28;20041;-66
2021/10/01 12:06:25;;;;;;;2.03;0.73;;;;;;;16.81;35.28;101269.38;4992704;28;20805;-66
2021/10/01 12:09:08;;;;;;;1.20;0.30;;;;;;;16.36;36.39;101253.53;5007131;28;20049;-64
2021/10/01 12:11:36;;;;;;;2.30;0.30;;;;;;;16.23;36.23;101243.78;5011769;28;20026;-65
2021/10/01 12:14:20;;;;;;;2.53;0.30;;;;;;;15.65;37.52;101254.03;5010865;28;20034;-66
2021/10/01 12:17:00;;;;;;;2.70;0.38;;;;;;;15.89;36.87;101249.19;5027455;28;20049;-66
2021/10/01 12:19:28;;;;;;;3.75;0.20;;;;;;;15.71;37.25;101252.84;5008768;28;20037;-65
2021/10/01 12:22:09;;;;;;;5.75;0.30;;;;;;;15.82;36.72;101237.28;5014060;28;20033;-65
2021/10/01 12:24:55;;;;;;;3.17;0.20;;;;;;;15.30;37.64;101245.41;5015243;28;20045;-65
2021/10/01 12:27:39;;;;;;;1.95;0.30;;;;;;;16.47;35.93;101249.44;5014214;28;20056;-65
2021/10/01 12:30:05;;;;;;;2.63;0.30;;;;;;;17.08;35.53;101245.72;5003657;28;20026;-67
2021/10/01 12:32:31;;;;;;;4.22;0.82;;;;;;;16.93;34.92;101233.47;5003903;28;20388;-68
2021/10/01 12:34:58;;;;;;;2.00;0.22;;;;;;;17.27;34.25;101231.38;5005841;28;20030;-67
2021/10/01 12:37:28;;;;;;;3.55;0.20;;;;;;;17.51;34.41;101240.41;5004106;28;20492;-68
2021/10/01 12:39:57;;;;;;;5.18;0.28;;;;;;;17.81;33.39;101236.78;5003534;28;20045;-68
2021/10/01 12:42:25;;;;;;;3.15;0.40;;;;;;;17.40;33.97;101237.56;5004070;28;20490;-68
2021/10/01 12:45:07;;;;;;;1.98;0.40;;;;;;;17.20;34.00;101242.34;5004822;28;20093;-66
2021/10/01 12:47:36;;;;;;;1.13;0.52;;;;;;;16.71;34.78;101232.13;5004738;28;20064;-65
2021/10/01 12:50:12;;;;;;;5.30;0.30;;;;;;;16.76;35.22;101227.44;5005181;28;20045;-67
2021/10/01 12:53:06;;;;;;;2.55;0.20;;;;;;;17.47;34.49;101228.34;5000668;28;20042;-66
2021/10/01 12:55:33;;;;;;;3.25;0.75;;;;;;;17.24;34.14;101220.06;5003463;28;20409;-65
2021/10/01 12:57:59;;;;;;;2.95;0.55;;;;;;;17.11;33.62;101210.34;5002095;28;20042;-67
2021/10/01 13:00:29;;;;;;;1.42;0.20;;;;;;;17.19;34.46;101230.06;5004481;28;20472;-69
2021/10/01 13:02:59;;;;;;;4.35;0.40;;;;;;;16.71;34.69;101216.28;5003580;28;20029;-67
2021/10/01 13:05:28;;;;;;;2.72;0.40;;;;;;;16.83;34.19;101212.06;5003828;28;20120;-66
2021/10/01 13:07:57;;;;;;;4.20;0.30;;;;;;;16.85;34.74;101215.47;5003300;28;20041;-66
2021/10/01 13:10:29;;;;;;;4.45;0.20;;;;;;;16.44;35.23;101218.78;5003747;28;20042;-67